createdAt,value
2024-05-09T00:01:35.319Z,11.79
2024-05-09T00:04:04.956Z,11.79
2024-05-09T00:06:37.003Z,11.73
2024-05-09T00:09:06.510Z,11.70
2024-05-09T00:11:35.968Z,11.64
2024-05-09T00:14:05.328Z,11.60
2024-05-09T00:16:34.894Z,11.53
2024-05-09T00:19:04.410Z,11.47
2024-05-09T00:21:33.837Z,11.41
2024-05-09T00:24:06.243Z,11.37
2024-05-09T00:26:35.673Z,11.32
2024-05-09T00:29:05.168Z,11.18
2024-05-09T00:31:34.587Z,11.17
2024-05-09T00:34:04.027Z,11.19
2024-05-09T00:36:33.467Z,11.10
2024-05-09T00:39:02.837Z,11.12
2024-05-09T00:41:34.929Z,11.07
2024-05-09T00:44:04.703Z,10.97
2024-05-09T00:46:34.226Z,10.94
2024-05-09T00:49:05.311Z,10.95
2024-05-09T00:51:34.754Z,10.93
2024-05-09T00:54:05.571Z,10.86
2024-05-09T00:56:38.127Z,10.84
2024-05-09T00:59:07.682Z,10.80
2024-05-09T01:01:37.577Z,10.71
2024-05-09T01:04:07.409Z,10.71
2024-05-09T01:06:36.932Z,10.74
2024-05-09T01:09:06.472Z,10.69
2024-05-09T01:11:39.289Z,10.77
2024-05-09T01:14:08.983Z,10.79
2024-05-09T01:16:38.416Z,10.84
2024-05-09T01:19:09.159Z,10.79
2024-05-09T01:21:43.058Z,10.73
2024-05-09T01:24:15.095Z,10.68
2024-05-09T01:26:44.479Z,10.71
2024-05-09T01:29:13.891Z,10.69
2024-05-09T01:31:43.339Z,10.64
2024-05-09T01:34:12.844Z,10.65
2024-05-09T01:36:42.208Z,10.54
2024-05-09T01:39:11.542Z,10.46
2024-05-09T01:41:43.589Z,10.37
2024-05-09T01:44:12.982Z,10.33
2024-05-09T01:46:42.417Z,10.36
2024-05-09T01:49:11.986Z,10.35
2024-05-09T01:51:41.448Z,10.34
2024-05-09T01:54:10.827Z,10.32
2024-05-09T01:56:43.186Z,10.29
2024-05-09T01:59:12.767Z,10.23
2024-05-09T02:01:56.278Z,10.26
2024-05-09T02:04:27.376Z,10.23
2024-05-09T02:06:56.657Z,10.26
2024-05-09T02:09:26.020Z,10.27
2024-05-09T02:11:58.152Z,10.22
2024-05-09T02:14:27.884Z,10.28
2024-05-09T02:16:57.330Z,10.21
2024-05-09T02:19:26.827Z,10.19
2024-05-09T02:21:56.227Z,10.14
2024-05-09T02:24:25.566Z,10.08
2024-05-09T02:26:54.954Z,10.04
2024-05-09T02:29:26.982Z,10.00
2024-05-09T02:31:56.604Z,10.00
2024-05-09T02:34:26.123Z,9.93
2024-05-09T02:36:56.302Z,9.88
2024-05-09T02:39:23.170Z,9.79
2024-05-09T02:41:52.521Z,9.79
2024-05-09T02:44:19.291Z,9.80
2024-05-09T02:46:51.345Z,9.74
2024-05-09T02:49:18.137Z,9.75
2024-05-09T02:51:47.544Z,9.71
2024-05-09T02:54:14.325Z,9.61
2024-05-09T02:56:43.682Z,9.63
2024-05-09T02:59:10.700Z,9.63
2024-05-09T03:01:40.247Z,9.58
2024-05-09T03:04:09.805Z,9.51
2024-05-09T03:06:42.818Z,9.47
2024-05-09T03:09:09.886Z,9.46
2024-05-09T03:11:40.577Z,9.41
2024-05-09T03:14:07.472Z,9.43
2024-05-09T03:16:40.436Z,9.41
2024-05-09T03:19:10.463Z,9.29
2024-05-09T03:21:41.450Z,9.34
2024-05-09T03:24:08.212Z,9.31
2024-05-09T03:26:37.616Z,9.24
2024-05-09T03:29:04.714Z,9.25
2024-05-09T03:31:34.205Z,9.25
2024-05-09T03:34:01.215Z,9.20
2024-05-09T03:36:33.324Z,9.19
2024-05-09T03:39:02.748Z,9.17
2024-05-09T03:41:32.307Z,9.15
2024-05-09T03:43:59.262Z,9.12
2024-05-09T03:46:28.909Z,9.10
2024-05-09T03:48:55.752Z,9.06
2024-05-09T03:51:25.161Z,9.02
2024-05-09T03:53:54.593Z,8.99
2024-05-09T03:56:24.108Z,9.01
2024-05-09T03:58:50.966Z,9.01
2024-05-09T04:01:20.654Z,8.99
2024-05-09T04:03:47.649Z,8.99
2024-05-09T04:06:22.928Z,9.02
2024-05-09T04:08:49.671Z,9.06
2024-05-09T04:11:21.811Z,9.09
2024-05-09T04:13:48.673Z,9.08
2024-05-09T04:16:18.159Z,9.05
2024-05-09T04:18:45.111Z,9.11
2024-05-09T04:21:14.613Z,9.09
2024-05-09T04:23:41.568Z,9.13
2024-05-09T04:26:11.030Z,9.09
2024-05-09T04:28:40.398Z,9.11
2024-05-09T04:31:09.770Z,9.12
2024-05-09T04:33:36.863Z,9.18
2024-05-09T04:36:06.761Z,9.20
2024-05-09T04:38:33.413Z,9.23
2024-05-09T04:41:02.882Z,9.30
2024-05-09T04:43:29.667Z,9.30
2024-05-09T04:46:01.666Z,9.43
2024-05-09T04:48:29.014Z,9.45
2024-05-09T04:50:58.490Z,9.51
2024-05-09T04:53:25.296Z,9.57
2024-05-09T04:55:54.762Z,9.63
2024-05-09T04:58:21.638Z,9.66
2024-05-09T05:00:51.063Z,9.73
2024-05-09T05:03:20.594Z,9.85
2024-05-09T05:05:50.340Z,9.75
2024-05-09T05:08:19.084Z,9.96
2024-05-09T05:10:49.768Z,10.11
2024-05-09T05:13:18.281Z,10.16
2024-05-09T05:15:48.602Z,10.22
2024-05-09T05:18:16.275Z,10.31
2024-05-09T05:20:48.666Z,10.39
2024-05-09T05:23:19.302Z,10.40
2024-05-09T05:25:47.872Z,10.43
2024-05-09T05:28:18.594Z,10.52
2024-05-09T05:30:45.692Z,10.52
2024-05-09T05:33:18.393Z,10.57
2024-05-09T05:35:48.354Z,10.73
2024-05-09T05:38:18.182Z,10.75
2024-05-09T05:40:45.022Z,10.91
2024-05-09T05:43:19.178Z,10.99
2024-05-09T05:45:46.403Z,11.01
2024-05-09T05:48:17.206Z,11.15
2024-05-09T05:50:47.182Z,11.28
2024-05-09T05:53:16.967Z,11.38
2024-05-09T05:55:43.884Z,11.44
2024-05-09T05:58:14.754Z,11.54
2024-05-09T06:00:42.581Z,11.54
2024-05-09T06:03:13.452Z,11.55
2024-05-09T06:05:43.182Z,11.55
2024-05-09T06:08:15.561Z,11.56
2024-05-09T06:10:42.698Z,11.64
2024-05-09T06:13:13.754Z,11.72
2024-05-09T06:15:41.594Z,11.72
2024-05-09T06:18:12.585Z,11.91
2024-05-09T06:20:41.704Z,12.04
2024-05-09T06:23:12.841Z,12.07
2024-05-09T06:25:44.002Z,12.13
2024-05-09T06:28:13.510Z,12.26
2024-05-09T06:30:42.409Z,12.34
2024-05-09T06:33:15.593Z,12.36
2024-05-09T06:35:43.796Z,12.46
2024-05-09T06:38:13.599Z,12.56
2024-05-09T06:40:44.180Z,12.72
2024-05-09T06:43:16.413Z,12.81
2024-05-09T06:45:46.098Z,12.81
2024-05-09T06:48:15.736Z,12.99
2024-05-09T06:50:42.636Z,13.03
2024-05-09T06:53:12.191Z,13.00
2024-05-09T06:55:38.969Z,12.88
2024-05-09T06:58:11.710Z,13.21
2024-05-09T07:00:40.901Z,13.13
2024-05-09T07:03:12.960Z,13.37
2024-05-09T07:05:41.875Z,13.48
2024-05-09T07:08:11.511Z,13.57
2024-05-09T07:10:38.524Z,13.66
2024-05-09T07:13:13.654Z,13.66
2024-05-09T07:15:41.610Z,13.75
2024-05-09T07:18:13.852Z,13.84
2024-05-09T07:20:41.347Z,13.89
2024-05-09T07:23:11.608Z,13.92
2024-05-09T07:25:38.586Z,14.06
2024-05-09T07:28:08.569Z,14.09
2024-05-09T07:30:40.541Z,14.23
2024-05-09T07:33:07.500Z,14.24
2024-05-09T07:35:37.424Z,14.31
2024-05-09T07:38:04.815Z,14.22
2024-05-09T07:40:36.785Z,14.41
2024-05-09T07:43:04.248Z,14.46
2024-05-09T07:53:36.747Z,14.82
2024-05-09T07:55:58.452Z,14.95
2024-05-09T07:58:27.819Z,15.06
2024-05-09T08:00:57.521Z,15.12
2024-05-09T08:03:26.922Z,15.14
2024-05-09T08:05:56.901Z,15.06
2024-05-09T08:08:23.729Z,15.28
2024-05-09T08:10:53.599Z,15.31
2024-05-09T08:13:20.830Z,15.32
2024-05-09T08:15:51.662Z,15.45
2024-05-09T08:18:18.674Z,15.52
2024-05-09T08:20:51.146Z,15.63
2024-05-09T08:23:18.027Z,15.65
2024-05-09T08:25:48.001Z,15.70
2024-05-09T08:28:15.351Z,15.79
2024-05-09T08:30:45.666Z,15.71
2024-05-09T08:33:12.654Z,15.79
2024-05-09T08:35:42.071Z,15.90
2024-05-09T08:38:11.491Z,16.05
2024-05-09T08:40:40.897Z,16.12
2024-05-09T08:43:09.809Z,16.07
2024-05-09T08:45:43.760Z,16.16
2024-05-09T08:48:13.337Z,16.15
2024-05-09T08:50:44.810Z,16.27
2024-05-09T08:53:15.483Z,16.39
2024-05-09T08:55:45.361Z,16.59
2024-05-09T08:58:15.927Z,16.75
2024-05-09T09:00:46.769Z,16.77
2024-05-09T09:03:17.014Z,16.91
2024-05-09T09:05:51.701Z,17.12
2024-05-09T09:08:21.448Z,17.34
2024-05-09T09:10:52.971Z,17.33
2024-05-09T09:13:19.894Z,17.62
2024-05-09T09:15:50.219Z,17.59
2024-05-09T09:18:18.028Z,17.61
2024-05-09T09:20:47.862Z,17.46
2024-05-09T09:23:14.975Z,17.64
2024-05-09T09:25:47.316Z,17.60
2024-05-09T09:28:14.393Z,17.89
2024-05-09T09:30:44.238Z,18.18
2024-05-09T09:33:12.110Z,18.58
2024-05-09T09:35:42.443Z,18.67
2024-05-09T09:38:10.704Z,18.64
2024-05-09T09:40:45.792Z,18.56
2024-05-09T09:43:19.753Z,18.49
2024-05-09T09:45:49.555Z,18.31
2024-05-09T09:48:16.743Z,18.54
2024-05-09T09:50:46.445Z,18.76
2024-05-09T09:53:14.182Z,18.80
2024-05-09T09:55:44.524Z,18.74
2024-05-09T09:58:14.410Z,18.56
2024-05-09T10:00:47.381Z,18.38
2024-05-09T10:03:14.454Z,18.37
2024-05-09T10:05:46.981Z,18.62
2024-05-09T10:08:14.971Z,18.95
2024-05-09T10:10:48.829Z,19.03
2024-05-09T10:13:16.320Z,18.93
2024-05-09T10:15:49.427Z,18.71
2024-05-09T10:18:16.653Z,18.49
2024-05-09T10:20:46.666Z,18.47
2024-05-09T10:23:24.720Z,18.59
2024-05-09T10:26:01.003Z,18.43
2024-05-09T10:28:28.066Z,18.38
2024-05-09T10:31:13.897Z,18.46
2024-05-09T10:33:46.059Z,18.51
2024-05-09T10:36:16.106Z,18.74
2024-05-09T10:38:44.062Z,18.75
2024-05-09T10:41:13.961Z,18.52
2024-05-09T10:43:41.425Z,18.72
2024-05-09T10:46:14.599Z,18.89
2024-05-09T10:48:42.852Z,18.83
2024-05-09T10:51:12.364Z,18.86
2024-05-09T10:53:42.389Z,19.18
2024-05-09T10:56:12.229Z,19.30
2024-05-09T10:58:39.195Z,19.46
2024-05-09T11:01:09.066Z,19.28
2024-05-09T11:03:39.567Z,18.99
2024-05-09T11:06:09.809Z,18.84
2024-05-09T11:08:37.045Z,18.35
2024-05-09T11:11:08.493Z,17.93
2024-05-09T11:13:36.928Z,17.82
2024-05-09T11:16:07.963Z,17.89
2024-05-09T11:18:38.113Z,18.07
2024-05-09T11:21:14.647Z,18.30
2024-05-09T11:23:41.703Z,18.37
2024-05-09T11:26:15.154Z,18.56
2024-05-09T11:28:44.131Z,18.71
2024-05-09T11:31:13.540Z,18.81
2024-05-09T11:33:42.426Z,18.99
2024-05-09T11:36:14.485Z,19.28
2024-05-09T11:38:41.296Z,19.52
2024-05-09T11:41:10.794Z,19.77
2024-05-09T11:43:37.791Z,19.80
2024-05-09T11:46:07.574Z,19.96
2024-05-09T11:48:34.633Z,20.08
2024-05-09T11:51:04.173Z,20.17
2024-05-09T11:53:33.604Z,20.25
2024-05-09T11:56:03.200Z,20.03
2024-05-09T11:58:34.296Z,20.02
2024-05-09T12:01:04.544Z,20.39
2024-05-09T12:03:31.581Z,20.27
2024-05-09T12:06:01.106Z,20.26
2024-05-09T12:08:28.098Z,20.24
2024-05-09T12:11:00.345Z,20.42
2024-05-09T12:13:27.291Z,20.29
2024-05-09T12:15:56.930Z,20.11
2024-05-09T12:18:23.754Z,19.91
2024-05-09T12:20:53.190Z,19.69
2024-05-09T12:23:19.970Z,19.42
2024-05-09T12:25:49.869Z,19.69
2024-05-09T12:28:19.965Z,19.72
2024-05-09T12:30:50.623Z,19.51
2024-05-09T12:33:19.858Z,19.59
2024-05-09T12:35:51.046Z,19.93
2024-05-09T12:38:18.507Z,20.21
2024-05-09T12:40:48.174Z,20.56
2024-05-09T12:43:15.073Z,21.03
2024-05-09T12:45:47.195Z,21.05
2024-05-09T12:48:14.274Z,21.02
2024-05-09T12:50:44.119Z,20.78
2024-05-09T12:53:11.032Z,20.98
2024-05-09T12:55:48.411Z,20.94
2024-05-09T12:58:22.029Z,20.49
2024-05-09T13:00:54.421Z,20.12
2024-05-09T13:03:21.927Z,20.28
2024-05-09T13:05:52.015Z,20.17
2024-05-09T13:08:19.528Z,19.97
2024-05-09T13:10:50.292Z,20.02
2024-05-09T13:13:17.325Z,20.04
2024-05-09T13:15:46.887Z,20.77
2024-05-09T13:18:16.396Z,20.91
2024-05-09T13:20:46.833Z,20.91
2024-05-09T13:23:13.668Z,20.69
2024-05-09T13:25:43.163Z,20.72
2024-05-09T13:28:10.125Z,20.62
2024-05-09T13:30:41.853Z,20.39
2024-05-09T13:33:09.659Z,20.26
2024-05-09T13:35:46.790Z,20.16
2024-05-09T13:38:17.049Z,20.46
2024-05-09T13:40:46.888Z,20.87
2024-05-09T13:43:14.219Z,21.32
2024-05-09T13:45:43.883Z,21.41
2024-05-09T13:48:10.954Z,21.66
2024-05-09T13:50:43.068Z,21.96
2024-05-09T13:53:09.862Z,21.81
2024-05-09T13:55:40.686Z,21.83
2024-05-09T13:58:08.751Z,21.40
2024-05-09T14:00:46.199Z,20.92
2024-05-09T14:03:16.487Z,20.69
2024-05-09T14:05:51.183Z,20.39
2024-05-09T14:08:20.282Z,19.93
2024-05-09T14:10:50.563Z,19.75
2024-05-09T14:13:17.684Z,19.40
2024-05-09T14:15:48.281Z,19.46
2024-05-09T14:18:15.295Z,19.49
2024-05-09T14:20:44.787Z,19.72
2024-05-09T14:23:14.307Z,19.83
2024-05-09T14:25:44.996Z,19.98
2024-05-09T14:28:13.444Z,20.19
2024-05-09T14:30:43.369Z,20.39
2024-05-09T14:33:10.386Z,20.51
2024-05-09T14:35:40.517Z,20.52
2024-05-09T14:38:08.027Z,20.63
2024-05-09T14:40:43.610Z,20.78
2024-05-09T14:43:11.276Z,20.74
2024-05-09T14:45:41.094Z,20.88
2024-05-09T14:48:08.643Z,21.01
2024-05-09T14:50:40.003Z,20.94
2024-05-09T14:53:08.211Z,20.66
2024-05-09T14:55:42.149Z,20.17
2024-05-09T14:58:13.561Z,19.94
2024-05-09T15:00:46.343Z,19.94
2024-05-09T15:03:19.945Z,19.92
2024-05-09T15:05:47.861Z,19.86
2024-05-09T15:08:19.718Z,20.00
2024-05-09T15:10:50.437Z,20.23
2024-05-09T15:13:20.667Z,20.40
2024-05-09T15:15:48.250Z,20.44
2024-05-09T15:18:18.290Z,20.41
2024-05-09T15:20:45.827Z,20.56
2024-05-09T15:23:15.420Z,20.59
2024-05-09T15:25:44.269Z,20.80
2024-05-09T15:28:16.614Z,20.73
2024-05-09T15:30:46.324Z,20.81
2024-05-09T15:33:16.669Z,20.48
2024-05-09T15:35:45.706Z,20.23
2024-05-09T15:38:15.684Z,20.21
2024-05-09T15:40:42.451Z,20.38
2024-05-09T15:43:12.511Z,20.30
2024-05-09T15:45:42.216Z,20.35
2024-05-09T15:48:12.453Z,20.24
2024-05-09T15:50:41.661Z,20.15
2024-05-09T15:53:13.149Z,20.09
2024-05-09T15:55:43.356Z,19.82
2024-05-09T15:58:10.552Z,19.70
2024-05-09T16:00:42.614Z,19.72
2024-05-09T16:03:14.704Z,19.74
2024-05-09T16:05:46.934Z,19.71
2024-05-09T16:08:15.136Z,19.78
2024-05-09T16:10:46.154Z,19.73
2024-05-09T16:13:14.203Z,19.63
2024-05-09T16:15:46.515Z,19.50
2024-05-09T16:18:16.208Z,19.29
2024-05-09T16:20:48.401Z,19.27
2024-05-09T16:23:16.864Z,19.20
2024-05-09T16:25:48.036Z,19.21
2024-05-09T16:28:15.415Z,19.18
2024-05-09T16:30:44.944Z,19.11
2024-05-09T16:33:12.338Z,18.94
2024-05-09T16:35:44.517Z,18.80
2024-05-09T16:38:11.374Z,18.80
2024-05-09T16:40:41.590Z,18.86
2024-05-09T16:43:09.222Z,18.91
2024-05-09T16:45:39.806Z,18.98
2024-05-09T16:48:07.491Z,19.06
2024-05-09T16:50:37.237Z,19.00
2024-05-09T16:53:07.350Z,18.91
2024-05-09T16:55:37.106Z,18.82
2024-05-09T16:58:04.960Z,18.75
2024-05-09T17:00:40.771Z,18.68
2024-05-09T17:03:13.103Z,18.65
2024-05-09T17:05:43.937Z,18.57
2024-05-09T17:08:15.252Z,18.56
2024-05-09T17:10:44.862Z,18.55
2024-05-09T17:13:14.404Z,18.50
2024-05-09T17:15:44.230Z,18.26
2024-05-09T17:18:13.802Z,18.23
2024-05-09T17:20:43.312Z,18.02
2024-05-09T17:23:13.708Z,18.08
2024-05-09T17:25:46.505Z,18.07
2024-05-09T17:28:13.469Z,17.99
2024-05-09T17:30:43.285Z,17.86
2024-05-09T17:33:11.399Z,17.81
2024-05-09T17:35:41.891Z,17.73
2024-05-09T17:38:09.031Z,17.72
2024-05-09T17:40:39.338Z,17.50
2024-05-09T17:43:10.711Z,17.61
2024-05-09T17:45:41.599Z,17.54
2024-05-09T17:48:10.372Z,17.50
2024-05-09T17:50:41.588Z,17.42
2024-05-09T17:53:08.978Z,17.41
2024-05-09T17:55:38.828Z,17.34
2024-05-09T17:58:06.034Z,17.21
2024-05-09T18:00:41.259Z,17.20
2024-05-09T18:03:12.075Z,17.16
2024-05-09T18:05:44.104Z,17.09
2024-05-09T18:08:12.494Z,17.00
2024-05-09T18:10:43.021Z,16.94
2024-05-09T18:13:10.960Z,16.86
2024-05-09T18:15:45.078Z,16.81
2024-05-09T18:18:12.365Z,16.74
2024-05-09T18:20:45.266Z,16.65
2024-05-09T18:23:14.640Z,16.56
2024-05-09T18:25:45.453Z,16.46
2024-05-09T18:28:12.550Z,16.38
2024-05-09T18:30:44.715Z,16.31
2024-05-09T18:33:12.252Z,16.17
2024-05-09T18:35:43.907Z,16.08
2024-05-09T18:38:10.909Z,15.96
2024-05-09T18:40:42.697Z,15.87
2024-05-09T18:43:10.748Z,15.77
2024-05-09T18:45:40.405Z,15.62
2024-05-09T18:48:10.564Z,15.53
2024-05-09T18:50:41.550Z,15.44
2024-05-09T18:53:09.912Z,15.35
2024-05-09T18:55:39.534Z,15.24
2024-05-09T18:58:06.441Z,15.13
2024-05-09T19:00:39.007Z,15.04
2024-05-09T19:03:13.202Z,14.93
2024-05-09T19:05:45.500Z,14.87
2024-05-09T19:08:13.353Z,14.77
2024-05-09T19:10:42.908Z,14.73
2024-05-09T19:13:12.752Z,14.64
2024-05-09T19:15:44.081Z,14.58
2024-05-09T19:18:14.840Z,14.52
2024-05-09T19:20:45.065Z,14.47
2024-05-09T19:23:12.156Z,14.41
2024-05-09T19:25:41.601Z,14.36
2024-05-09T19:28:08.736Z,14.27
2024-05-09T19:30:41.466Z,14.22
2024-05-09T19:33:11.474Z,14.17
2024-05-09T19:35:44.791Z,14.14
2024-05-09T19:38:12.016Z,14.10
2024-05-09T19:40:41.582Z,14.08
2024-05-09T19:43:11.393Z,14.04
2024-05-09T19:45:38.567Z,13.97
2024-05-09T19:48:08.875Z,13.87
2024-05-09T19:50:41.730Z,13.80
2024-05-09T19:53:16.788Z,13.72
2024-05-09T19:55:43.701Z,13.68
2024-05-09T19:58:13.393Z,13.63
2024-05-09T20:00:42.679Z,13.63
2024-05-09T20:03:14.267Z,13.62
2024-05-09T20:05:42.442Z,13.54
2024-05-09T20:08:12.008Z,13.50
2024-05-09T20:10:41.509Z,13.44
2024-05-09T20:13:10.940Z,13.37
2024-05-09T20:15:38.644Z,13.24
2024-05-09T20:18:08.891Z,13.25
2024-05-09T20:20:39.901Z,13.27
2024-05-09T20:23:12.538Z,13.20
2024-05-09T20:25:42.340Z,13.13
2024-05-09T20:28:11.908Z,13.08
2024-05-09T20:30:38.896Z,13.04
2024-05-09T20:33:09.689Z,12.99
2024-05-09T20:35:37.209Z,12.95
2024-05-09T20:38:07.023Z,12.94
2024-05-09T20:40:37.571Z,12.88
2024-05-09T20:43:11.910Z,12.83
2024-05-09T20:45:39.512Z,12.82
2024-05-09T20:48:11.410Z,12.71
2024-05-09T20:50:41.353Z,12.64
2024-05-09T20:53:13.432Z,12.58
2024-05-09T20:55:41.691Z,12.51
2024-05-09T20:58:14.131Z,12.45
2024-05-09T21:00:44.387Z,12.35
2024-05-09T21:03:17.100Z,12.33
2024-05-09T21:05:44.817Z,12.29
2024-05-09T21:08:14.342Z,12.24
2024-05-09T21:10:41.404Z,12.19
2024-05-09T21:13:13.657Z,12.14
2024-05-09T21:15:40.808Z,12.09
2024-05-09T21:18:10.782Z,12.06
2024-05-09T21:20:37.800Z,12.01
2024-05-09T21:23:07.667Z,11.96
2024-05-09T21:25:34.530Z,11.92
2024-05-09T21:28:03.959Z,11.88
2024-05-09T21:30:41.218Z,11.82
2024-05-09T21:33:14.072Z,11.77
2024-05-09T21:35:42.172Z,11.73
2024-05-09T21:38:13.545Z,11.73
2024-05-09T21:40:40.607Z,11.69
2024-05-09T21:43:10.055Z,11.66
2024-05-09T21:45:39.553Z,11.65
2024-05-09T21:48:10.201Z,11.61
2024-05-09T21:50:41.014Z,11.59
2024-05-09T21:53:12.600Z,11.57
2024-05-09T21:55:40.046Z,11.72
2024-05-09T21:58:10.526Z,11.75
2024-05-09T22:00:40.744Z,11.77
2024-05-09T22:03:11.912Z,11.70
2024-05-09T22:05:41.912Z,11.69
2024-05-09T22:08:11.708Z,11.67
2024-05-09T22:10:38.831Z,11.64
2024-05-09T22:13:09.081Z,11.66
2024-05-09T22:15:40.491Z,11.48
2024-05-09T22:18:11.414Z,11.55
2024-05-09T22:20:44.261Z,11.44
2024-05-09T22:23:14.979Z,11.48
2024-05-09T22:25:42.243Z,11.41
2024-05-09T22:28:11.685Z,11.39
2024-05-09T22:30:41.277Z,11.38
2024-05-09T22:33:12.088Z,11.42
2024-05-09T22:35:40.085Z,11.41
2024-05-09T22:38:09.696Z,11.49
2024-05-09T22:40:46.394Z,11.54
2024-05-09T22:43:24.577Z,11.53
2024-05-09T22:45:55.317Z,11.49
2024-05-09T22:48:25.715Z,11.54
2024-05-09T22:50:53.085Z,11.41
2024-05-09T22:53:24.075Z,11.51
2024-05-09T22:55:50.882Z,11.52
2024-05-09T22:58:20.786Z,11.48
2024-05-09T23:00:47.887Z,11.47
2024-05-09T23:03:21.760Z,11.43
2024-05-09T23:05:49.253Z,11.42
2024-05-09T23:08:18.682Z,11.41
2024-05-09T23:10:45.629Z,11.39
2024-05-09T23:13:15.222Z,11.37
2024-05-09T23:15:42.196Z,11.36
2024-05-09T23:18:11.671Z,11.30
2024-05-09T23:20:41.203Z,11.29
2024-05-09T23:23:12.100Z,11.25
2024-05-09T23:25:39.271Z,11.13
2024-05-09T23:28:08.964Z,11.18
2024-05-09T23:30:39.060Z,11.11
2024-05-09T23:33:10.745Z,11.05
2024-05-09T23:35:41.102Z,11.06
2024-05-09T23:38:10.512Z,10.95
2024-05-09T23:40:40.171Z,11.06
2024-05-09T23:43:11.629Z,10.98
2024-05-09T23:45:40.487Z,10.93
2024-05-09T23:48:11.077Z,10.87
2024-05-09T23:50:41.304Z,10.86
2024-05-09T23:53:11.403Z,10.74
2024-05-09T23:55:38.691Z,10.45
2024-05-09T23:58:08.578Z,10.55
